Dunn, NC (28334)

12:31 AM EDT on August 25, 2016 (GMT -0400)
C and L Farms | | Change Station

Elev 180 ft 35.28 °N, 78.65 °W | Updated 25 seconds ago

Clear
Clear
66.9 °F
Feels Like 66.9 °F
N
0.0
Wind Variable Wind from South

Today
High -- | Low -- °F
--% Chance of Precip.
Yesterday
High -- | Low -- °F
Precip. -- in
Pressure 30.21 in
Visibility 10.0 miles
Clouds Clear
Dew Point 64 °F
Humidity 91%
Rainfall 0.00 in
Snow Depth Not available.
6:42 AM 7:50 PM
Waning Gibbous, 50% visible
METAR KHRJ 250420Z AUTO 00000KT 10SM CLR 21/21 A3021 RMK AO2 T02100210
Pressure 30.21 in
Visibility 10.0 miles
Clouds Clear
Dew Point 64 °F
Humidity 91%
Rainfall 0.00 in
Snow Depth Not available.
6:42 AM 7:50 PM
Waning Gibbous, 50% visible
METAR KHRJ 250420Z AUTO 00000KT 10SM CLR 21/21 A3021 RMK AO2 T02100210

10-Day Weather Forecast

Almanac

Astronomy

Aug. 25, 2016 Rise Set
Actual Time
Civil Twilight
Nautical Twilight
Astronomical Twilight
Moon
Length of Visible Light
Length of Day
Tomorrow will be .
, % of the Moon is Illuminated

Today's Extremes

State Highs State Lows

Community

WunderPhotos

Upload Photos

1,934,796 photos uploaded!

WunderBlog® & News

Nearby

Air Quality

  Air Quality AQ Index Pollutant
Not available.

Snow Depth

Station Depth Elevation

Earthquake Activity

City Distance Mag. Time & Date
Minimum magnitude displayed is 2.5.

Coastal Water Temperatures

Place Temperature

Stations

Nearby Weather Stations

Station Location Temp. Windchill Dew Point Humidity Wind Precip. Elev Updated Type
                   

Watches & Warnings

There are currently no watches in effect.